Terminal Aerodrome Forecast
Issued by NWS

Home | Current Version | Previous Version | Text Only | Print | Product List | Glossary On
Versions: 1 2 3 4 5 6 7 8 9 10 11 12 13 14 15 16 17 18 19 20 21
000
FTAK31 PAFA 282326
TAFAQT
TAF
PAQT 282326Z 2900/2924 06009KT P6SM OVC014
      TEMPO 2900/2904 4SM BR SCT015
     FM290400 18006KT 4SM BR SCT014
     FM291500 23008KT P6SM SCT010 BKN015=

USA.gov is the U.S. government's official web portal to all federal, state and local government web resources and services.